createdAt,value
2022-11-01T00:00:44.556Z,11.20
2022-11-01T00:03:30.536Z,11.20
2022-11-01T00:06:16.570Z,11.20
2022-11-01T00:09:03.479Z,11.20
2022-11-01T00:11:49.880Z,11.30
2022-11-01T00:14:36.091Z,11.20
2022-11-01T00:17:22.140Z,11.30
2022-11-01T00:20:08.687Z,11.30
2022-11-01T00:22:54.682Z,11.40
2022-11-01T00:25:40.654Z,11.30
2022-11-01T00:28:28.190Z,11.30
2022-11-01T00:31:16.164Z,11.20
2022-11-01T00:34:05.587Z,11.10
2022-11-01T00:36:51.640Z,11.00
2022-11-01T00:39:37.631Z,10.90
2022-11-01T00:42:23.586Z,10.90
2022-11-01T00:45:09.972Z,11.00
2022-11-01T00:47:55.929Z,11.10
2022-11-01T00:50:41.847Z,11.10
2022-11-01T00:53:27.796Z,11.20
2022-11-01T00:56:13.760Z,11.20
2022-11-01T00:59:00.132Z,11.20
2022-11-01T01:01:47.484Z,11.00
2022-11-01T01:04:33.896Z,10.90
2022-11-01T01:07:19.990Z,10.80
2022-11-01T01:10:07.422Z,10.90
2022-11-01T01:12:53.511Z,11.00
2022-11-01T01:15:40.144Z,11.10
2022-11-01T01:18:27.360Z,11.20
2022-11-01T01:21:14.111Z,11.20
2022-11-01T01:24:00.660Z,11.10
2022-11-01T01:26:46.725Z,11.00
2022-11-01T01:29:32.675Z,11.00
2022-11-01T01:32:23.517Z,11.00
2022-11-01T01:35:10.392Z,11.00
2022-11-01T01:37:56.522Z,11.00
2022-11-01T01:40:42.963Z,10.90
2022-11-01T01:43:41.544Z,10.90
2022-11-01T01:46:27.333Z,11.00
2022-11-01T01:49:13.404Z,11.00
2022-11-01T01:51:59.333Z,11.00
2022-11-01T01:54:45.563Z,11.00
2022-11-01T01:57:32.341Z,11.00
2022-11-01T02:00:18.748Z,11.10
2022-11-01T02:03:06.585Z,11.00
2022-11-01T02:05:58.111Z,10.90
2022-11-01T02:08:48.426Z,10.80
2022-11-01T02:11:34.754Z,10.70
2022-11-01T02:14:23.345Z,10.80
2022-11-01T02:17:12.403Z,10.70
2022-11-01T02:20:36.113Z,10.70
2022-11-01T02:23:54.730Z,10.80
2022-11-01T02:26:43.812Z,10.90
2022-11-01T02:30:05.551Z,10.90
2022-11-01T02:33:15.643Z,10.90
2022-11-01T02:36:16.343Z,10.90
2022-11-01T02:39:19.751Z,10.90
2022-11-01T02:42:14.543Z,10.90
2022-11-01T02:45:27.571Z,11.00
2022-11-01T02:48:13.652Z,11.00
2022-11-01T02:51:00.370Z,11.10
2022-11-01T02:53:46.778Z,11.10
2022-11-01T02:56:33.063Z,11.10
2022-11-01T02:59:28.456Z,11.00
2022-11-01T03:02:21.439Z,10.90
2022-11-01T03:05:16.445Z,10.90
2022-11-01T03:08:09.538Z,10.90
2022-11-01T03:11:07.064Z,10.90
2022-11-01T03:13:57.517Z,10.90
2022-11-01T03:16:59.094Z,10.90
2022-11-01T03:19:49.327Z,10.80
2022-11-01T03:22:46.178Z,11.00
2022-11-01T03:25:44.481Z,10.80
2022-11-01T03:28:30.349Z,10.80
2022-11-01T03:31:43.511Z,10.80
2022-11-01T03:34:32.777Z,10.70
2022-11-01T03:37:20.465Z,10.60
2022-11-01T03:40:08.654Z,10.40
2022-11-01T03:42:59.780Z,10.30
2022-11-01T03:45:46.243Z,10.30
2022-11-01T03:48:32.209Z,10.40
2022-11-01T03:51:18.786Z,10.40
2022-11-01T03:54:10.928Z,10.40
2022-11-01T03:56:57.343Z,10.30
2022-11-01T03:59:43.419Z,10.20
2022-11-01T04:02:29.520Z,10.10
2022-11-01T04:05:16.441Z,10.00
2022-11-01T04:08:03.346Z,10.00
2022-11-01T04:10:49.266Z,10.00
2022-11-01T04:13:35.271Z,10.10
2022-11-01T04:16:39.734Z,10.20
2022-11-01T04:19:44.143Z,10.30
2022-11-01T04:22:30.055Z,10.30
2022-11-01T04:25:16.018Z,10.20
2022-11-01T04:28:05.495Z,10.10
2022-11-01T04:30:51.767Z,10.00
2022-11-01T04:33:38.205Z,10.00
2022-11-01T04:36:25.410Z,10.00
2022-11-01T04:39:11.202Z,10.00
2022-11-01T04:41:57.074Z,10.00
2022-11-01T04:44:43.083Z,9.80
2022-11-01T04:47:29.016Z,9.80
2022-11-01T04:50:15.186Z,9.70
2022-11-01T04:53:01.941Z,9.70
2022-11-01T04:55:47.980Z,9.70
2022-11-01T04:58:39.990Z,9.50
2022-11-01T05:01:29.287Z,9.20
2022-11-01T05:04:15.645Z,9.00
2022-11-01T05:07:01.920Z,9.00
2022-11-01T05:09:48.275Z,9.20
2022-11-01T05:12:35.440Z,9.40
2022-11-01T05:15:21.733Z,9.50
2022-11-01T05:18:07.849Z,9.70
2022-11-01T05:20:54.237Z,9.80
2022-11-01T05:23:40.258Z,9.90
2022-11-01T05:26:27.796Z,9.60
2022-11-01T05:29:24.498Z,9.50
2022-11-01T05:32:18.581Z,9.40
2022-11-01T05:35:06.234Z,9.40
2022-11-01T05:37:52.840Z,9.40
2022-11-01T05:40:39.180Z,9.50
2022-11-01T05:43:25.208Z,9.40
2022-11-01T05:46:11.275Z,9.40
2022-11-01T05:48:57.150Z,9.30
2022-11-01T05:51:43.836Z,9.30
2022-11-01T05:54:30.006Z,9.40
2022-11-01T05:57:16.202Z,9.50
2022-11-01T06:00:02.271Z,9.70
2022-11-01T06:03:02.073Z,9.80
2022-11-01T06:05:48.858Z,10.00
2022-11-01T06:08:35.139Z,10.10
2022-11-01T06:11:20.974Z,10.10
2022-11-01T06:14:07.045Z,10.10
2022-11-01T06:16:53.314Z,10.20
2022-11-01T06:19:39.609Z,10.30
2022-11-01T06:22:25.750Z,10.20
2022-11-01T06:25:12.392Z,10.30
2022-11-01T06:27:58.297Z,10.30
2022-11-01T06:30:44.485Z,10.30
2022-11-01T06:33:31.080Z,10.20
2022-11-01T06:36:17.162Z,10.30
2022-11-01T06:39:03.340Z,10.30
2022-11-01T06:41:51.177Z,10.30
2022-11-01T06:44:37.469Z,10.30
2022-11-01T06:47:23.706Z,10.40
2022-11-01T06:50:10.211Z,10.50
2022-11-01T06:52:58.463Z,10.50
2022-11-01T06:55:44.480Z,10.70
2022-11-01T06:58:30.510Z,10.70
2022-11-01T07:01:22.277Z,10.70
2022-11-01T07:04:08.713Z,10.80
2022-11-01T07:06:55.169Z,10.80
2022-11-01T07:09:41.053Z,10.90
2022-11-01T07:12:27.742Z,11.10
2022-11-01T07:15:14.390Z,11.30
2022-11-01T07:18:02.850Z,11.50
2022-11-01T07:20:48.954Z,11.60
2022-11-01T07:23:35.098Z,11.70
2022-11-01T07:26:21.490Z,11.70
2022-11-01T07:29:07.476Z,11.70
2022-11-01T07:31:53.453Z,11.60
2022-11-01T07:34:39.470Z,11.60
2022-11-01T07:37:29.908Z,11.70
2022-11-01T07:40:16.524Z,11.60
2022-11-01T07:43:02.901Z,11.60
2022-11-01T07:45:49.118Z,11.70
2022-11-01T07:48:36.930Z,11.80
2022-11-01T07:51:23.635Z,11.90
2022-11-01T07:54:11.480Z,12.10
2022-11-01T07:56:58.119Z,12.40
2022-11-01T07:59:44.241Z,12.90
2022-11-01T08:02:30.394Z,13.40
2022-11-01T08:05:17.091Z,13.80
2022-11-01T08:08:03.876Z,14.40
2022-11-01T08:10:50.206Z,14.80
2022-11-01T08:13:36.309Z,15.20
2022-11-01T08:16:22.528Z,15.60
2022-11-01T08:19:08.879Z,15.70
2022-11-01T08:21:58.707Z,15.70
2022-11-01T08:24:45.294Z,15.70
2022-11-01T08:27:32.920Z,15.70
2022-11-01T08:30:21.029Z,15.70
2022-11-01T08:33:07.982Z,15.70
2022-11-01T08:35:53.954Z,15.70
2022-11-01T08:38:39.987Z,15.90
2022-11-01T08:41:28.243Z,16.20
2022-11-01T08:44:14.810Z,16.70
2022-11-01T08:47:01.772Z,17.10
2022-11-01T08:49:48.321Z,17.40
2022-11-01T08:52:35.131Z,17.50
2022-11-01T08:55:22.104Z,17.60
2022-11-01T08:58:08.761Z,17.70
2022-11-01T09:00:54.914Z,17.80
2022-11-01T09:03:41.252Z,18.00
2022-11-01T09:06:33.697Z,18.20
2022-11-01T09:09:22.696Z,18.20
2022-11-01T09:12:14.099Z,18.10
2022-11-01T09:15:00.796Z,17.80
2022-11-01T09:17:46.903Z,17.50
2022-11-01T09:20:33.138Z,17.30
2022-11-01T09:23:19.626Z,17.20
2022-11-01T09:26:08.369Z,17.00
2022-11-01T09:28:58.375Z,16.80
2022-11-01T09:31:44.508Z,16.70
2022-11-01T09:34:31.047Z,16.60
2022-11-01T09:37:17.531Z,16.60
2022-11-01T09:40:04.590Z,16.60
2022-11-01T09:42:52.512Z,16.60
2022-11-01T09:45:39.280Z,16.60
2022-11-01T09:48:30.579Z,16.60
2022-11-01T09:51:24.275Z,16.70
2022-11-01T09:54:11.020Z,16.70
2022-11-01T09:57:26.717Z,16.80
2022-11-01T10:00:20.589Z,16.90
2022-11-01T10:03:07.651Z,17.10
2022-11-01T10:06:12.974Z,17.20
2022-11-01T10:09:17.077Z,17.20
2022-11-01T10:12:19.448Z,17.30
2022-11-01T10:15:24.862Z,17.30
2022-11-01T10:18:27.865Z,17.20
2022-11-01T10:21:16.617Z,17.20
2022-11-01T10:24:07.979Z,17.20
2022-11-01T10:27:12.840Z,17.30
2022-11-01T10:30:04.084Z,17.40
2022-11-01T10:33:13.805Z,17.50
2022-11-01T10:36:04.317Z,17.60
2022-11-01T10:39:48.218Z,17.70
2022-11-01T10:42:10.226Z,17.80
2022-11-01T10:45:01.514Z,17.70
2022-11-01T10:47:49.451Z,17.70
2022-11-01T10:50:35.742Z,17.80
2022-11-01T10:53:22.681Z,18.00
2022-11-01T10:56:12.450Z,18.20
2022-11-01T10:59:13.463Z,18.50
2022-11-01T11:02:02.016Z,18.60
2022-11-01T11:04:50.042Z,18.90
2022-11-01T11:07:36.127Z,19.20
2022-11-01T11:10:28.993Z,19.40
2022-11-01T11:13:19.713Z,19.50
2022-11-01T11:16:13.931Z,19.80
2022-11-01T11:19:21.104Z,20.00
2022-11-01T11:22:09.083Z,20.10
2022-11-01T11:24:58.946Z,20.20
2022-11-01T11:27:47.701Z,20.80
2022-11-01T11:30:35.401Z,21.10
2022-11-01T11:33:22.528Z,20.80
2022-11-01T11:36:09.037Z,20.40
2022-11-01T11:38:55.699Z,20.20
2022-11-01T11:41:44.375Z,20.60
2022-11-01T11:44:44.620Z,20.70
2022-11-01T11:47:36.434Z,20.80
2022-11-01T11:50:32.762Z,20.60
2022-11-01T11:53:22.924Z,20.80
2022-11-01T11:56:11.915Z,21.10
2022-11-01T11:59:08.366Z,21.30
2022-11-01T12:02:26.619Z,21.60
2022-11-01T12:05:18.590Z,21.50
2022-11-01T12:08:05.863Z,21.20
2022-11-01T12:10:58.125Z,20.90
2022-11-01T12:14:06.108Z,20.50
2022-11-01T12:16:52.572Z,20.30
2022-11-01T12:19:38.948Z,19.90
2022-11-01T12:22:24.935Z,19.50
2022-11-01T12:25:14.990Z,19.30
2022-11-01T12:28:06.394Z,19.10
2022-11-01T12:30:58.144Z,19.00
2022-11-01T12:34:03.727Z,19.00
2022-11-01T12:36:55.624Z,19.00
2022-11-01T12:40:07.949Z,18.80
2022-11-01T12:43:02.647Z,18.70
2022-11-01T12:46:14.232Z,18.60
2022-11-01T12:49:16.287Z,18.50
2022-11-01T12:52:26.717Z,18.30
2022-11-01T12:55:15.334Z,18.10
2022-11-01T12:58:13.399Z,18.00
2022-11-01T13:01:13.700Z,18.10
2022-11-01T13:04:31.804Z,18.20
2022-11-01T13:07:46.720Z,18.30
2022-11-01T13:10:38.238Z,18.20
2022-11-01T13:14:23.065Z,18.10
2022-11-01T13:17:39.841Z,18.20
2022-11-01T13:20:31.970Z,18.20
2022-11-01T13:23:49.312Z,18.20
2022-11-01T13:26:50.349Z,18.00
2022-11-01T13:29:51.915Z,18.00
2022-11-01T13:32:48.762Z,17.80
2022-11-01T13:35:47.224Z,17.80
2022-11-01T13:38:51.746Z,17.80
2022-11-01T13:41:47.732Z,17.80
2022-11-01T13:44:38.459Z,17.70
2022-11-01T13:47:41.671Z,17.80
2022-11-01T13:50:58.384Z,17.90
2022-11-01T13:53:46.779Z,17.90
2022-11-01T13:56:55.076Z,17.90
2022-11-01T13:59:44.611Z,17.90
2022-11-01T14:02:31.021Z,18.00
2022-11-01T14:05:17.163Z,18.00
2022-11-01T14:08:03.714Z,17.90
2022-11-01T14:10:50.738Z,17.80
2022-11-01T14:13:45.745Z,17.70
2022-11-01T14:16:31.835Z,17.50
2022-11-01T14:19:21.560Z,17.50
2022-11-01T14:22:27.829Z,17.40
2022-11-01T14:25:13.969Z,17.40
2022-11-01T14:28:21.016Z,17.40
2022-11-01T14:31:07.679Z,17.40
2022-11-01T14:33:59.019Z,17.40
2022-11-01T14:36:46.833Z,17.30
2022-11-01T14:39:46.588Z,17.30
2022-11-01T14:42:41.873Z,17.10
2022-11-01T14:45:39.772Z,17.10
2022-11-01T14:48:47.326Z,17.10
2022-11-01T14:51:41.734Z,17.00
2022-11-01T14:54:34.871Z,17.10
2022-11-01T14:57:28.037Z,17.00
2022-11-01T15:00:41.221Z,17.00
2022-11-01T15:03:27.588Z,17.00
2022-11-01T15:06:24.648Z,17.00
2022-11-01T15:09:18.853Z,17.00
2022-11-01T15:12:10.818Z,16.90
2022-11-01T15:14:58.866Z,16.90
2022-11-01T15:17:53.107Z,16.80
2022-11-01T15:20:42.519Z,16.80
2022-11-01T15:23:49.181Z,16.80
2022-11-01T15:26:36.310Z,16.80
2022-11-01T15:29:24.867Z,16.80
2022-11-01T15:32:32.569Z,16.80
2022-11-01T15:35:26.772Z,16.80
2022-11-01T15:38:20.781Z,16.90
2022-11-01T15:41:30.783Z,16.90
2022-11-01T15:44:26.226Z,16.90
2022-11-01T15:47:26.000Z,16.80
2022-11-01T15:50:13.351Z,16.70
2022-11-01T15:53:04.081Z,16.60
2022-11-01T15:56:07.302Z,16.60
2022-11-01T16:01:47.254Z,16.50
2022-11-01T16:04:41.051Z,16.40
2022-11-01T16:07:30.628Z,16.50
2022-11-01T16:10:23.744Z,16.50
2022-11-01T16:13:17.563Z,16.50
2022-11-01T16:16:10.556Z,16.60
2022-11-01T16:18:56.753Z,16.60
2022-11-01T16:21:48.166Z,16.60
2022-11-01T16:24:35.092Z,16.50
2022-11-01T16:27:28.234Z,16.50
2022-11-01T16:30:33.336Z,16.50
2022-11-01T16:33:28.752Z,16.40
2022-11-01T16:36:18.041Z,16.40
2022-11-01T16:39:31.116Z,16.40
2022-11-01T16:42:18.610Z,16.40
2022-11-01T16:45:16.986Z,16.40
2022-11-01T16:48:03.858Z,16.40
2022-11-01T16:50:52.254Z,16.40
2022-11-01T16:53:38.566Z,16.40
2022-11-01T16:56:36.614Z,16.50
2022-11-01T16:59:38.082Z,16.50
2022-11-01T17:02:29.781Z,16.50
2022-11-01T17:05:21.022Z,16.50
2022-11-01T17:08:09.632Z,16.50
2022-11-01T17:10:55.660Z,16.50
2022-11-01T17:13:42.176Z,16.50
2022-11-01T17:16:28.513Z,16.50
2022-11-01T17:19:31.181Z,16.50
2022-11-01T17:22:26.173Z,16.50
2022-11-01T17:25:16.749Z,16.40
2022-11-01T17:28:03.320Z,16.40
2022-11-01T17:30:50.437Z,16.30
2022-11-01T17:33:36.801Z,16.30
2022-11-01T17:36:23.147Z,16.30
2022-11-01T17:39:10.348Z,16.20
2022-11-01T17:41:56.549Z,16.20
2022-11-01T17:44:42.762Z,16.10
2022-11-01T17:47:29.029Z,16.00
2022-11-01T17:50:16.572Z,16.00
2022-11-01T17:53:03.503Z,15.90
2022-11-01T17:55:57.202Z,15.90
2022-11-01T17:58:49.418Z,15.80
2022-11-01T18:01:38.785Z,15.80
2022-11-01T18:04:25.279Z,15.70
2022-11-01T18:07:12.775Z,15.70
2022-11-01T18:09:59.499Z,15.80
2022-11-01T18:13:12.115Z,15.80
2022-11-01T18:16:26.742Z,15.80
2022-11-01T18:19:34.986Z,15.60
2022-11-01T18:22:57.419Z,15.60
2022-11-01T18:25:47.284Z,15.60
2022-11-01T18:28:35.110Z,15.40
2022-11-01T18:31:39.470Z,15.20
2022-11-01T18:34:47.145Z,15.20
2022-11-01T18:37:36.676Z,15.10
2022-11-01T18:40:27.738Z,15.20
2022-11-01T18:43:13.746Z,15.30
2022-11-01T18:46:24.006Z,15.30
2022-11-01T18:49:12.835Z,15.30
2022-11-01T18:51:59.049Z,15.40
2022-11-01T18:54:56.534Z,15.40
2022-11-01T18:57:42.918Z,15.40
2022-11-01T19:00:28.847Z,15.40
2022-11-01T19:03:16.980Z,15.40
2022-11-01T19:06:21.006Z,15.40
2022-11-01T19:09:24.632Z,15.40
2022-11-01T19:12:29.686Z,15.30
2022-11-01T19:15:29.545Z,15.30
2022-11-01T19:18:22.624Z,15.20
2022-11-01T19:21:17.333Z,15.00
2022-11-01T19:24:16.767Z,14.90
2022-11-01T19:27:13.939Z,14.80
2022-11-01T19:30:00.094Z,14.80
2022-11-01T19:32:46.560Z,14.80
2022-11-01T19:35:32.857Z,14.90
2022-11-01T19:38:19.833Z,14.80
2022-11-01T19:41:05.936Z,14.90
2022-11-01T19:43:54.046Z,14.90
2022-11-01T19:46:40.063Z,14.90
2022-11-01T19:49:32.012Z,14.80
2022-11-01T19:52:36.252Z,14.80
2022-11-01T19:55:37.335Z,14.70
2022-11-01T19:58:30.907Z,14.50
2022-11-01T20:01:17.130Z,14.30
2022-11-01T20:04:27.691Z,14.20
2022-11-01T20:07:19.999Z,14.10
2022-11-01T20:10:08.638Z,13.90
2022-11-01T20:12:54.895Z,13.70
2022-11-01T20:15:41.341Z,13.50
2022-11-01T20:18:27.439Z,13.30
2022-11-01T20:21:13.466Z,13.10
2022-11-01T20:23:59.995Z,13.10
2022-11-01T20:26:46.205Z,12.90
2022-11-01T20:29:32.615Z,12.90
2022-11-01T20:32:18.859Z,12.80
2022-11-01T20:35:05.768Z,12.80
2022-11-01T20:37:52.426Z,12.70
2022-11-01T20:40:38.391Z,12.80
2022-11-01T20:43:24.412Z,12.90
2022-11-01T20:46:10.775Z,13.00
2022-11-01T20:48:57.001Z,13.10
2022-11-01T20:51:43.203Z,13.10
2022-11-01T20:54:30.332Z,13.10
2022-11-01T20:57:27.651Z,13.10
2022-11-01T21:00:17.988Z,13.00
2022-11-01T21:03:15.430Z,13.00
2022-11-01T21:06:01.653Z,13.00
2022-11-01T21:08:48.983Z,12.90
2022-11-01T21:11:44.236Z,13.00
2022-11-01T21:14:37.388Z,12.90
2022-11-01T21:17:23.608Z,12.90
2022-11-01T21:20:22.983Z,12.80
2022-11-01T21:23:21.589Z,12.70
2022-11-01T21:26:10.299Z,12.60
2022-11-01T21:29:15.742Z,12.50
2022-11-01T21:32:15.201Z,12.40
2022-11-01T21:35:30.011Z,12.50
2022-11-01T21:38:36.681Z,12.50
2022-11-01T21:41:34.543Z,12.60
2022-11-01T21:44:39.637Z,12.60
2022-11-01T21:47:31.221Z,12.60
2022-11-01T21:50:17.173Z,12.60
2022-11-01T21:53:03.278Z,12.50
2022-11-01T21:55:49.506Z,12.50
2022-11-01T21:58:35.506Z,12.40
2022-11-01T22:01:21.565Z,12.30
2022-11-01T22:04:07.320Z,12.20
2022-11-01T22:06:53.398Z,12.30
2022-11-01T22:09:39.499Z,12.30
2022-11-01T22:12:25.776Z,12.30
2022-11-01T22:15:11.828Z,12.20
2022-11-01T22:17:57.713Z,12.10
2022-11-01T22:20:43.718Z,12.00
2022-11-01T22:23:29.686Z,12.00
2022-11-01T22:26:16.241Z,12.10
2022-11-01T22:29:02.241Z,12.10
2022-11-01T22:31:48.247Z,12.20
2022-11-01T22:34:34.158Z,12.20
2022-11-01T22:37:20.221Z,12.10
2022-11-01T22:40:13.218Z,12.10
2022-11-01T22:42:59.757Z,12.10
2022-11-01T22:45:45.732Z,12.10
2022-11-01T22:48:32.277Z,12.20
2022-11-01T22:51:50.444Z,12.30
2022-11-01T22:54:52.051Z,12.30
2022-11-01T22:57:49.477Z,12.20
2022-11-01T23:00:39.199Z,12.20
2022-11-01T23:03:38.308Z,12.10
2022-11-01T23:06:30.964Z,12.00
2022-11-01T23:09:19.840Z,12.00
2022-11-01T23:12:40.774Z,12.00
2022-11-01T23:15:29.202Z,11.90
2022-11-01T23:18:23.880Z,11.90
2022-11-01T23:21:10.351Z,11.80
2022-11-01T23:23:56.715Z,11.70
2022-11-01T23:26:42.858Z,11.80
2022-11-01T23:29:28.985Z,11.80
2022-11-01T23:32:15.151Z,11.80
2022-11-01T23:35:14.795Z,11.70
2022-11-01T23:38:01.048Z,11.60
2022-11-01T23:40:47.233Z,11.40
2022-11-01T23:43:38.732Z,11.40
2022-11-01T23:46:26.511Z,11.30
2022-11-01T23:49:18.387Z,11.30
2022-11-01T23:52:24.501Z,11.20
2022-11-01T23:55:40.768Z,11.20
